Ashland, Missouri
Current Conditions -  °F | °C
As of 11:54 PM on Wednesday 22 Oct 2014 (Local Time) from KCOU Reporting Station
Clear Clear  
Wind Chill: 46°   Ceiling: Unl
Heat Index: 49°   Visibility: 10mi
Dew Point: 41°   Wind: 7mph
Humidity: 74%   Direction: 130°SE
Pressure: 30.18"   Gusts: NA
Location:  38.77°N, 92.26°W
Report Text: KCOU 230454Z AUTO 13006KT 10SM CLR 09/05 A3018 RMK AO2 SLP218 T00940050
Loading
Personal Weather Stations






























Interactive Weather Map
Tropical Storm Tracking
New forecast layout! Learn more

10-Day Weather Forecast

Advertisements
Track Severe Weather on mobile